createdAt,value
2022-09-15T00:01:07.468Z,5.22
2022-09-15T00:03:34.898Z,4.80
2022-09-15T00:06:02.050Z,4.50
2022-09-15T00:08:29.272Z,4.65
2022-09-15T00:11:18.297Z,4.78
2022-09-15T00:13:45.370Z,4.65
2022-09-15T00:16:15.232Z,4.28
2022-09-15T00:18:43.389Z,4.75
2022-09-15T00:21:13.880Z,5.07
2022-09-15T00:23:40.923Z,6.15
2022-09-15T00:26:10.107Z,4.55
2022-09-15T00:28:37.457Z,4.65
2022-09-15T00:31:09.883Z,4.82
2022-09-15T00:33:37.118Z,4.65
2022-09-15T00:36:07.491Z,4.25
2022-09-15T00:38:35.989Z,4.50
2022-09-15T00:41:03.800Z,4.25
2022-09-15T00:43:45.314Z,4.22
2022-09-15T00:46:13.217Z,4.18
2022-09-15T00:48:45.564Z,4.38
2022-09-15T00:51:16.860Z,3.95
2022-09-15T00:53:46.327Z,3.60
2022-09-15T00:56:15.116Z,3.15
2022-09-15T00:58:57.978Z,3.33
2022-09-15T01:01:27.744Z,3.42
2022-09-15T01:03:55.397Z,3.42
2022-09-15T01:06:35.570Z,3.35
2022-09-15T01:09:42.660Z,3.20
2022-09-15T01:12:09.444Z,3.30
2022-09-15T01:14:36.280Z,3.17
2022-09-15T01:17:15.413Z,3.75
2022-09-15T01:19:42.181Z,2.97
2022-09-15T01:22:36.842Z,3.40
2022-09-15T01:25:35.280Z,3.45
2022-09-15T01:28:20.842Z,3.20
2022-09-15T01:31:03.270Z,3.30
2022-09-15T01:33:48.594Z,3.60
2022-09-15T01:36:49.204Z,3.47
2022-09-15T01:39:28.436Z,3.92
2022-09-15T01:41:59.770Z,3.65
2022-09-15T01:44:41.069Z,3.33
2022-09-15T01:47:12.070Z,3.40
2022-09-15T01:49:54.437Z,3.75
2022-09-15T01:52:23.598Z,3.80
2022-09-15T01:55:00.426Z,3.58
2022-09-15T01:57:28.014Z,3.45
2022-09-15T01:59:56.183Z,3.35
2022-09-15T02:02:31.265Z,3.50
2022-09-15T02:05:01.020Z,3.83
2022-09-15T02:07:47.520Z,3.58
2022-09-15T02:10:22.073Z,3.75
2022-09-15T02:13:06.253Z,3.67
2022-09-15T02:15:48.080Z,3.47
2022-09-15T02:18:38.491Z,3.42
2022-09-15T02:21:40.852Z,3.35
2022-09-15T02:24:21.040Z,3.65
2022-09-15T02:26:51.349Z,3.80
2022-09-15T02:29:21.461Z,3.50
2022-09-15T02:31:52.585Z,3.72
2022-09-15T02:34:31.679Z,3.53
2022-09-15T02:36:59.533Z,4.10
2022-09-15T02:39:33.151Z,3.58
2022-09-15T02:42:02.350Z,3.75
2022-09-15T02:44:33.066Z,3.97
2022-09-15T02:47:01.993Z,3.60
2022-09-15T02:49:28.856Z,3.72
2022-09-15T02:51:55.795Z,3.83
2022-09-15T02:54:22.526Z,3.17
2022-09-15T02:56:49.307Z,3.90
2022-09-15T02:59:16.094Z,4.57
2022-09-15T03:01:42.919Z,4.65
2022-09-15T03:04:09.725Z,3.70
2022-09-15T03:06:36.544Z,3.92
2022-09-15T03:09:07.985Z,4.15
2022-09-15T03:11:36.107Z,3.70
2022-09-15T03:14:05.744Z,4.03
2022-09-15T03:16:34.908Z,3.80
2022-09-15T03:19:02.923Z,3.90
2022-09-15T03:21:30.336Z,3.80
2022-09-15T03:23:58.537Z,3.55
2022-09-15T03:26:25.579Z,3.65
2022-09-15T03:28:52.490Z,3.78
2022-09-15T03:31:19.875Z,3.78
2022-09-15T03:33:47.202Z,3.97
2022-09-15T03:36:14.074Z,3.58
2022-09-15T03:38:40.925Z,4.28
2022-09-15T03:41:11.702Z,4.32
2022-09-15T03:43:38.997Z,3.30
2022-09-15T03:46:07.695Z,3.10
2022-09-15T03:48:36.552Z,2.60
2022-09-15T03:51:07.625Z,2.42
2022-09-15T03:53:36.082Z,2.72
2022-09-15T03:56:27.748Z,2.35
2022-09-15T03:58:54.804Z,2.50
2022-09-15T04:01:34.536Z,2.30
2022-09-15T04:04:08.451Z,2.53
2022-09-15T04:06:35.797Z,2.15
2022-09-15T04:09:03.129Z,2.47
2022-09-15T04:11:32.646Z,3.13
2022-09-15T04:13:59.822Z,2.33
2022-09-15T04:16:30.419Z,2.90
2022-09-15T04:18:57.744Z,2.25
2022-09-15T04:21:26.763Z,2.58
2022-09-15T04:23:54.208Z,2.50
2022-09-15T04:26:22.995Z,2.72
2022-09-15T04:28:50.224Z,2.20
2022-09-15T04:31:17.871Z,2.83
2022-09-15T04:33:45.525Z,2.50
2022-09-15T04:36:15.678Z,2.70
2022-09-15T04:38:42.763Z,2.30
2022-09-15T04:41:10.893Z,2.58
2022-09-15T04:43:38.195Z,2.30
2022-09-15T04:46:08.998Z,2.38
2022-09-15T04:48:42.719Z,2.30
2022-09-15T04:51:14.004Z,2.78
2022-09-15T04:53:43.694Z,2.60
2022-09-15T04:56:25.864Z,2.35
2022-09-15T04:59:02.714Z,2.08
2022-09-15T05:01:41.223Z,2.35
2022-09-15T05:04:09.110Z,2.22
2022-09-15T05:06:38.607Z,2.45
2022-09-15T05:09:11.551Z,2.88
2022-09-15T05:11:40.655Z,3.05
2022-09-15T05:14:09.677Z,3.22
2022-09-15T05:16:36.886Z,3.20
2022-09-15T05:19:04.776Z,3.10
2022-09-15T05:21:32.048Z,2.40
2022-09-15T05:23:58.803Z,2.65
2022-09-15T05:26:29.802Z,2.92
2022-09-15T05:28:57.779Z,2.78
2022-09-15T05:31:27.398Z,3.10
2022-09-15T05:33:54.745Z,2.55
2022-09-15T05:36:25.339Z,2.53
2022-09-15T05:38:59.156Z,2.50
2022-09-15T05:41:27.181Z,2.40
2022-09-15T05:43:57.110Z,2.05
2022-09-15T05:46:26.233Z,1.35
2022-09-15T05:48:55.574Z,0.73
2022-09-15T05:51:22.667Z,0.68
2022-09-15T05:53:49.905Z,0.90
2022-09-15T05:56:17.484Z,0.65
2022-09-15T05:58:46.496Z,0.60
2022-09-15T06:01:19.677Z,0.50
2022-09-15T06:03:47.609Z,0.60
2022-09-15T06:06:15.077Z,0.50
2022-09-15T06:08:50.038Z,0.77
2022-09-15T06:11:21.370Z,0.50
2022-09-15T06:13:49.038Z,0.50
2022-09-15T06:16:22.054Z,0.50
2022-09-15T06:18:51.081Z,0.60
2022-09-15T06:21:23.016Z,0.68
2022-09-15T06:23:57.810Z,0.70
2022-09-15T06:26:26.191Z,0.70
2022-09-15T06:28:52.979Z,0.75
2022-09-15T06:31:20.082Z,0.70
2022-09-15T06:33:51.295Z,0.65
2022-09-15T06:36:23.194Z,0.60
2022-09-15T06:38:50.008Z,0.60
2022-09-15T06:41:16.799Z,0.77
2022-09-15T06:43:44.409Z,0.70
2022-09-15T06:46:16.944Z,0.68
2022-09-15T06:48:47.520Z,0.90
2022-09-15T06:51:17.963Z,0.70
2022-09-15T06:53:45.583Z,0.73
2022-09-15T06:56:18.601Z,0.60
2022-09-15T06:58:46.447Z,0.85
2022-09-15T07:01:25.393Z,0.63
2022-09-15T07:03:52.807Z,0.50
2022-09-15T07:06:20.176Z,0.68
2022-09-15T07:08:47.345Z,0.60
2022-09-15T07:11:18.376Z,0.50
2022-09-15T07:13:45.412Z,0.77
2022-09-15T07:16:13.428Z,0.80
2022-09-15T07:18:43.295Z,0.70
2022-09-15T07:21:18.543Z,0.55
2022-09-15T07:23:45.758Z,0.50
2022-09-15T07:26:27.136Z,0.63
2022-09-15T07:28:59.575Z,0.52
2022-09-15T07:31:29.074Z,0.50
2022-09-15T07:33:55.942Z,0.40
2022-09-15T07:36:22.894Z,0.60
2022-09-15T07:38:52.956Z,0.60
2022-09-15T07:41:22.806Z,0.63
2022-09-15T07:43:55.087Z,0.50
2022-09-15T07:46:23.456Z,0.75
2022-09-15T07:48:52.088Z,0.73
2022-09-15T07:51:19.419Z,0.70
2022-09-15T07:53:47.765Z,0.95
2022-09-15T07:56:15.453Z,0.98
2022-09-15T07:58:42.260Z,1.40
2022-09-15T08:01:16.866Z,1.05
2022-09-15T08:03:49.090Z,1.15
2022-09-15T08:06:21.593Z,1.20
2022-09-15T08:09:00.807Z,0.90
2022-09-15T08:11:28.807Z,0.95
2022-09-15T08:13:55.660Z,0.90
2022-09-15T08:16:24.293Z,1.00
2022-09-15T08:18:53.671Z,1.40
2022-09-15T08:21:21.965Z,1.30
2022-09-15T08:23:56.992Z,1.40
2022-09-15T08:26:25.375Z,1.73
2022-09-15T08:28:53.062Z,1.70
2022-09-15T08:31:20.090Z,2.00
2022-09-15T08:33:51.880Z,2.25
2022-09-15T08:36:18.777Z,2.50
2022-09-15T08:38:46.521Z,2.78
2022-09-15T08:41:19.110Z,2.70
2022-09-15T08:44:32.288Z,2.72
2022-09-15T08:47:27.710Z,2.50
2022-09-15T08:50:07.958Z,2.63
2022-09-15T08:52:37.909Z,2.33
2022-09-15T08:55:17.847Z,2.53
2022-09-15T08:57:45.100Z,2.70
2022-09-15T09:00:16.797Z,2.75
2022-09-15T09:02:52.976Z,2.47
2022-09-15T09:05:19.778Z,2.35
2022-09-15T09:08:11.823Z,2.53
2022-09-15T09:10:53.397Z,2.70
2022-09-15T09:13:43.941Z,2.42
2022-09-15T09:16:42.458Z,2.30
2022-09-15T09:19:37.609Z,2.38
2022-09-15T09:22:13.937Z,2.70
2022-09-15T09:24:51.573Z,2.42
2022-09-15T09:27:23.954Z,2.15
2022-09-15T09:30:02.509Z,2.80
2022-09-15T09:33:03.902Z,2.10
2022-09-15T09:35:51.755Z,2.22
2022-09-15T09:38:26.468Z,2.55
2022-09-15T09:40:53.500Z,2.40
2022-09-15T09:43:20.619Z,2.40
2022-09-15T09:45:47.468Z,2.15
2022-09-15T09:48:21.074Z,2.58
2022-09-15T09:50:50.589Z,2.40
2022-09-15T09:53:33.460Z,2.97
2022-09-15T09:56:17.714Z,2.22
2022-09-15T09:58:45.229Z,2.75
2022-09-15T10:01:15.175Z,2.58
2022-09-15T10:03:43.364Z,3.15
2022-09-15T10:06:20.621Z,2.75
2022-09-15T10:09:05.521Z,2.60
2022-09-15T10:12:00.108Z,3.00
2022-09-15T10:14:32.892Z,2.63
2022-09-15T10:17:07.421Z,2.70
2022-09-15T10:19:44.248Z,3.17
2022-09-15T10:22:31.396Z,2.90
2022-09-15T10:25:01.012Z,2.70
2022-09-15T10:27:38.817Z,2.83
2022-09-15T10:30:20.759Z,2.90
2022-09-15T10:32:48.887Z,3.30
2022-09-15T10:35:22.691Z,2.97
2022-09-15T10:37:56.805Z,2.83
2022-09-15T10:40:42.174Z,3.10
2022-09-15T10:43:23.311Z,3.22
2022-09-15T10:46:14.275Z,2.50
2022-09-15T10:49:00.708Z,2.40
2022-09-15T10:51:49.676Z,2.53
2022-09-15T10:54:39.456Z,2.67
2022-09-15T10:57:30.071Z,2.72
2022-09-15T11:00:10.477Z,2.35
2022-09-15T11:03:07.003Z,2.50
2022-09-15T11:09:00.131Z,2.47
2022-09-15T11:12:03.226Z,2.60
2022-09-15T11:14:46.453Z,2.33
2022-09-15T11:17:49.216Z,2.25
2022-09-15T11:20:18.339Z,2.22
2022-09-15T11:22:53.318Z,2.13
2022-09-15T11:25:28.455Z,2.10
2022-09-15T11:28:04.908Z,2.10
2022-09-15T11:30:52.375Z,2.08
2022-09-15T11:33:25.576Z,2.50
2022-09-15T11:37:00.383Z,2.35
2022-09-15T11:39:45.167Z,1.98
2022-09-15T11:42:19.302Z,2.08
2022-09-15T11:44:48.840Z,1.80
2022-09-15T11:47:20.760Z,1.77
2022-09-15T11:50:12.070Z,2.00
2022-09-15T11:53:20.591Z,2.10
2022-09-15T11:56:25.020Z,1.98
2022-09-15T11:59:30.313Z,1.73
2022-09-15T12:02:19.154Z,1.90
2022-09-15T12:05:14.121Z,2.20
2022-09-15T12:07:52.640Z,2.20
2022-09-15T12:10:42.981Z,2.35
2022-09-15T12:13:24.067Z,1.90
2022-09-15T12:15:57.829Z,1.77
2022-09-15T12:18:40.768Z,2.25
2022-09-15T12:21:35.148Z,1.88
2022-09-15T12:24:16.718Z,2.30
2022-09-15T12:26:46.927Z,2.00
2022-09-15T12:29:26.383Z,1.63
2022-09-15T12:32:19.011Z,1.52
2022-09-15T12:35:34.925Z,1.90
2022-09-15T12:38:14.034Z,1.48
2022-09-15T12:40:41.798Z,1.65
2022-09-15T12:43:12.683Z,1.30
2022-09-15T12:45:42.937Z,1.48
2022-09-15T12:48:24.687Z,1.60
2022-09-15T12:51:02.274Z,1.85
2022-09-15T12:53:30.581Z,1.48
2022-09-15T12:56:07.238Z,1.40
2022-09-15T12:58:49.649Z,1.85
2022-09-15T13:01:19.734Z,1.50
2022-09-15T13:03:47.469Z,1.40
2022-09-15T13:06:19.297Z,1.27
2022-09-15T13:09:05.589Z,1.42
2022-09-15T13:11:34.394Z,2.00
2022-09-15T13:14:04.331Z,1.50
2022-09-15T13:16:33.878Z,1.35
2022-09-15T13:19:29.644Z,1.63
2022-09-15T13:22:11.730Z,1.60
2022-09-15T13:25:02.042Z,1.73
2022-09-15T13:27:50.651Z,1.50
2022-09-15T13:30:49.339Z,1.52
2022-09-15T13:40:10.833Z,1.40
2022-09-15T13:42:40.653Z,1.52
2022-09-15T13:45:07.469Z,1.48
2022-09-15T13:48:02.276Z,1.23
2022-09-15T13:51:02.059Z,1.50
2022-09-15T13:53:47.452Z,1.23
2022-09-15T13:56:25.785Z,1.30
2022-09-15T13:58:54.705Z,1.58
2022-09-15T14:01:25.278Z,1.60
2022-09-15T14:03:55.282Z,2.30
2022-09-15T14:06:30.377Z,1.63
2022-09-15T14:09:02.058Z,1.40
2022-09-15T14:11:32.350Z,1.50
2022-09-15T14:14:00.675Z,1.45
2022-09-15T14:16:27.961Z,1.30
2022-09-15T14:18:57.785Z,1.38
2022-09-15T14:21:30.616Z,1.50
2022-09-15T14:24:02.570Z,1.40
2022-09-15T14:26:30.708Z,1.25
2022-09-15T14:28:59.970Z,1.50
2022-09-15T14:31:34.778Z,1.55
2022-09-15T14:34:04.975Z,1.70
2022-09-15T14:36:33.934Z,1.80
2022-09-15T14:39:21.498Z,1.63
2022-09-15T14:41:50.084Z,1.50
2022-09-15T14:47:27.940Z,1.85
2022-09-15T14:50:15.168Z,1.80
2022-09-15T14:52:43.429Z,1.85
2022-09-15T14:55:15.914Z,1.83
2022-09-15T14:57:48.861Z,1.98
2022-09-15T15:00:21.268Z,2.10
2022-09-15T15:02:54.863Z,2.10
2022-09-15T15:05:30.414Z,1.90
2022-09-15T15:07:57.826Z,2.00
2022-09-15T15:10:34.858Z,2.00
2022-09-15T15:13:08.968Z,1.85
2022-09-15T15:15:38.784Z,1.75
2022-09-15T15:18:31.539Z,1.90
2022-09-15T15:20:59.187Z,1.80
2022-09-15T15:23:26.720Z,2.00
2022-09-15T15:25:54.084Z,1.80
2022-09-15T15:28:39.344Z,1.83
2022-09-15T15:31:24.061Z,2.00
2022-09-15T15:34:05.071Z,3.10
2022-09-15T15:36:34.873Z,2.42
2022-09-15T15:39:05.220Z,2.00
2022-09-15T15:41:41.667Z,2.00
2022-09-15T15:44:27.629Z,2.13
2022-09-15T15:47:02.957Z,2.10
2022-09-15T15:49:32.520Z,2.25
2022-09-15T15:52:01.207Z,2.20
2022-09-15T15:54:28.107Z,2.20
2022-09-15T15:56:55.445Z,1.92
2022-09-15T15:59:22.258Z,1.60
2022-09-15T16:01:52.896Z,1.80
2022-09-15T16:04:19.976Z,1.67
2022-09-15T16:06:47.679Z,2.00
2022-09-15T16:09:17.242Z,1.83
2022-09-15T16:11:44.138Z,2.20
2022-09-15T16:14:13.661Z,1.98
2022-09-15T16:16:40.927Z,2.10
2022-09-15T16:19:08.651Z,2.00
2022-09-15T16:21:39.730Z,1.88
2022-09-15T16:24:11.781Z,2.10
2022-09-15T16:26:39.414Z,1.90
2022-09-15T16:29:06.685Z,1.90
2022-09-15T16:31:34.739Z,1.70
2022-09-15T16:34:01.647Z,1.88
2022-09-15T16:36:29.132Z,1.70
2022-09-15T16:38:55.899Z,2.00
2022-09-15T16:41:26.149Z,1.77
2022-09-15T16:43:58.696Z,1.67
2022-09-15T16:46:25.618Z,1.90
2022-09-15T16:48:52.403Z,1.83
2022-09-15T16:51:28.723Z,1.70
2022-09-15T16:53:57.575Z,2.45
2022-09-15T16:56:24.363Z,2.63
2022-09-15T16:58:58.807Z,2.35
2022-09-15T17:01:26.919Z,2.70
2022-09-15T17:03:53.716Z,2.45
2022-09-15T17:06:22.302Z,2.30
2022-09-15T17:08:50.247Z,2.42
2022-09-15T17:11:19.489Z,2.70
2022-09-15T17:13:46.988Z,2.30
2022-09-15T17:16:17.626Z,2.08
2022-09-15T17:18:44.892Z,2.22
2022-09-15T17:21:12.629Z,2.63
2022-09-15T17:23:44.628Z,2.20
2022-09-15T17:26:14.089Z,2.70
2022-09-15T17:28:42.218Z,2.55
2022-09-15T17:31:18.532Z,2.35
2022-09-15T17:33:46.175Z,2.97
2022-09-15T17:36:13.281Z,2.92
2022-09-15T17:38:44.850Z,2.97
2022-09-15T17:41:22.457Z,2.70
2022-09-15T17:43:49.581Z,2.75
2022-09-15T17:46:16.400Z,2.67
2022-09-15T17:48:43.349Z,2.22
2022-09-15T17:51:15.234Z,2.22
2022-09-15T17:53:42.600Z,1.73
2022-09-15T17:56:09.450Z,2.00
2022-09-15T17:58:36.324Z,1.90
2022-09-15T18:01:04.189Z,1.70
2022-09-15T18:03:36.576Z,2.00
2022-09-15T18:06:06.485Z,2.63
2022-09-15T18:08:34.362Z,2.10
2022-09-15T18:11:02.747Z,2.38
2022-09-15T18:13:30.331Z,2.85
2022-09-15T18:15:58.414Z,2.90
2022-09-15T18:18:27.415Z,2.80
2022-09-15T18:20:57.798Z,2.70
2022-09-15T18:23:26.934Z,2.75
2022-09-15T18:25:53.770Z,2.90
2022-09-15T18:28:20.589Z,4.70
2022-09-15T18:30:49.845Z,5.80
2022-09-15T18:33:21.075Z,4.23
2022-09-15T18:35:59.214Z,3.57
2022-09-15T18:38:26.551Z,2.87
2022-09-15T18:40:56.977Z,2.87
2022-09-15T18:43:26.632Z,2.33
2022-09-15T18:45:59.454Z,2.37
2022-09-15T18:48:27.381Z,2.27
2022-09-15T18:50:55.141Z,2.30
2022-09-15T18:53:32.198Z,2.30
2022-09-15T18:55:59.529Z,2.63
2022-09-15T18:58:27.311Z,2.73
2022-09-15T19:01:00.101Z,2.53
2022-09-15T19:03:27.612Z,3.20
2022-09-15T19:05:56.173Z,4.13
2022-09-15T19:08:23.410Z,3.73
2022-09-15T19:10:58.345Z,3.60
2022-09-15T19:13:25.920Z,3.50
2022-09-15T19:15:53.659Z,3.70
2022-09-15T19:18:23.023Z,3.50
2022-09-15T19:20:50.143Z,3.93
2022-09-15T19:23:17.122Z,3.77
2022-09-15T19:25:43.917Z,3.70
2022-09-15T19:28:10.739Z,3.53
2022-09-15T19:30:37.597Z,3.40
2022-09-15T19:33:05.580Z,3.67
2022-09-15T19:35:32.399Z,3.70
2022-09-15T19:37:59.337Z,3.40
2022-09-15T19:40:26.301Z,4.03
2022-09-15T19:42:53.152Z,4.27
2022-09-15T19:45:19.973Z,4.10
2022-09-15T19:47:46.858Z,4.50
2022-09-15T19:50:13.617Z,4.00
2022-09-15T19:52:40.419Z,4.13
2022-09-15T19:55:09.652Z,4.37
2022-09-15T19:57:40.917Z,3.40
2022-09-15T20:00:10.341Z,4.03
2022-09-15T20:02:37.205Z,3.63
2022-09-15T20:05:04.930Z,3.80
2022-09-15T20:07:32.524Z,4.30
2022-09-15T20:09:59.312Z,4.20
2022-09-15T20:12:26.760Z,4.00
2022-09-15T20:14:53.564Z,4.00
2022-09-15T20:17:20.368Z,4.23
2022-09-15T20:19:47.228Z,3.90
2022-09-15T20:22:14.202Z,3.47
2022-09-15T20:24:40.968Z,3.80
2022-09-15T20:27:08.928Z,3.30
2022-09-15T20:29:35.773Z,3.80
2022-09-15T20:32:02.688Z,3.47
2022-09-15T20:34:29.499Z,3.83
2022-09-15T20:36:56.380Z,4.17
2022-09-15T20:39:23.687Z,3.93
2022-09-15T20:41:50.545Z,3.70
2022-09-15T20:44:17.361Z,4.03
2022-09-15T20:46:44.325Z,4.63
2022-09-15T20:49:11.399Z,4.20
2022-09-15T20:51:38.606Z,4.73
2022-09-15T20:54:05.921Z,4.00
2022-09-15T20:56:35.236Z,4.83
2022-09-15T20:59:03.715Z,4.57
2022-09-15T21:01:36.798Z,4.20
2022-09-15T21:04:08.704Z,4.97
2022-09-15T21:06:35.965Z,4.77
2022-09-15T21:09:03.926Z,4.40
2022-09-15T21:11:31.018Z,4.43
2022-09-15T21:13:58.839Z,4.77
2022-09-15T21:16:28.213Z,4.77
2022-09-15T21:18:56.892Z,4.67
2022-09-15T21:21:30.082Z,4.30
2022-09-15T21:24:01.252Z,4.33
2022-09-15T21:26:58.294Z,4.50
2022-09-15T21:29:27.811Z,4.27
2022-09-15T21:31:57.995Z,4.33
2022-09-15T21:34:24.964Z,4.57
2022-09-15T21:36:53.545Z,4.27
2022-09-15T21:39:21.317Z,4.43
2022-09-15T21:41:48.191Z,4.27
2022-09-15T21:44:15.197Z,4.10
2022-09-15T21:46:42.031Z,3.93
2022-09-15T21:49:09.102Z,4.60
2022-09-15T21:51:36.317Z,4.10
2022-09-15T21:54:06.318Z,5.30
2022-09-15T21:56:33.497Z,4.77
2022-09-15T21:59:02.365Z,5.20
2022-09-15T22:01:31.915Z,5.20
2022-09-15T22:04:04.836Z,4.80
2022-09-15T22:06:36.992Z,5.33
2022-09-15T22:09:07.143Z,5.53
2022-09-15T22:11:34.731Z,5.70
2022-09-15T22:14:03.155Z,4.97
2022-09-15T22:16:30.537Z,5.30
2022-09-15T22:18:57.559Z,5.30
2022-09-15T22:21:31.461Z,5.47
2022-09-15T22:23:59.365Z,5.53
2022-09-15T22:26:29.866Z,5.27
2022-09-15T22:28:58.432Z,5.50
2022-09-15T22:31:26.535Z,5.97
2022-09-15T22:33:53.808Z,5.67
2022-09-15T22:36:27.944Z,5.70
2022-09-15T22:38:56.439Z,6.07
2022-09-15T22:41:25.889Z,6.13
2022-09-15T22:43:52.867Z,6.30
2022-09-15T22:46:20.543Z,6.53
2022-09-15T22:48:47.455Z,6.43
2022-09-15T22:51:14.912Z,6.30
2022-09-15T22:53:41.771Z,6.53
2022-09-15T22:56:20.863Z,7.37
2022-09-15T22:58:49.315Z,7.80
2022-09-15T23:01:19.018Z,7.50
2022-09-15T23:03:56.578Z,8.03
2022-09-15T23:06:24.990Z,7.40
2022-09-15T23:08:57.495Z,7.27
2022-09-15T23:11:26.153Z,7.73
2022-09-15T23:13:53.338Z,7.70
2022-09-15T23:16:20.726Z,7.63
2022-09-15T23:18:48.318Z,7.37
2022-09-15T23:21:15.281Z,7.63
2022-09-15T23:23:44.396Z,7.97
2022-09-15T23:26:12.460Z,8.23
2022-09-15T23:28:39.731Z,8.30
2022-09-15T23:31:07.486Z,8.53
2022-09-15T23:33:34.757Z,8.00
2022-09-15T23:36:02.742Z,7.50
2022-09-15T23:38:29.957Z,8.90
2022-09-15T23:40:56.970Z,8.90
2022-09-15T23:43:23.934Z,7.90
2022-09-15T23:45:51.369Z,8.60
2022-09-15T23:48:18.532Z,7.93
2022-09-15T23:50:45.846Z,8.30
2022-09-15T23:53:13.127Z,7.87
2022-09-15T23:55:40.088Z,7.97
2022-09-15T23:58:06.867Z,7.60
